Tonopah, Nevada Weather observations

Data are for observation ending at time listed.
 Day   Time    Ave.   Ave.  Ave.  Vector   Max.   Stn.    Total    Solar   Ave.  
  of    of     Air    Rel.  Wind   Wind    Wind   Baro.  Precip.   Rad.    Soil  
Year   Day     Temp.  Hum.  Speed  Dir.    Gust   Pres.                    Temp. 
2016   (PST)    F      %     mph   deg.    mph     mb.     in.     W/m2     F   
------------------------------------------------------------------------------
 204   14:00   89.2     9    5.2   301     12.2   817.6    0.00     932    94.1
 204   14:10   89.6     9    5.1   298     13.7   817.5    0.00     911    94.4
 204   14:20   89.4     9    7.8   284     16.1   817.4    0.00     895    94.6
 204   14:30   90.1     8    8.0   301     13.7   817.3    0.00     871    94.7
 204   14:40   90.4     8    7.3   297     15.5   817.2    0.00     846    94.8
 204   14:50   90.8     8    7.1   293     15.7   817.0    0.00     823    94.9
 204   15:00   91.1     8    6.3   276     14.1   816.9    0.00     797    95.0
 204   15:10   89.9     8    6.0   299     14.6   816.8    0.00     769    95.0
 204   15:20   90.4     8    6.2   273     12.2   816.7    0.00     741    95.0
 204   15:30   90.4     8    6.7   271     14.6   816.7    0.00     712    95.0
 204   15:40   90.4     8    3.6   235      7.8   816.6    0.00     677    95.0
 204   15:50   90.4     8    3.8   228     10.3   816.4    0.00     646    94.9
 204   16:00   90.5     8    4.2   253     12.9   816.3    0.00     614    94.8
 204   16:10   90.9     7    5.6   257     15.9   816.2    0.00     584    94.7
 204   16:20   91.1     7    6.3   280     11.2   816.0    0.00     551    94.5
 204   16:30   91.3     7    6.8   282     12.6   816.0    0.00     518    94.4
 204   16:40   90.8     7    8.5   282     19.6   815.9    0.00     484    94.2
 204   16:50   90.4     7    7.7   293     15.8   815.9    0.00     449    94.0
 204   17:00   91.0     7    6.4   271     10.6   815.9    0.00     412    93.8
 204   17:10   90.3     7    7.5   302     13.0   815.8    0.00     377    93.6
 204   17:20   90.5     7    5.9   277     12.7   815.8    0.00     341    93.5
 204   17:30   90.9     7    6.1   263     12.1   815.8    0.00     304    93.4
 204   17:40   90.9     7    4.4   276      8.9   815.7    0.00     269    93.2
 204   17:50   90.2     7    7.0   309     12.9   815.7    0.00     235    93.1
 204   18:00   89.6     8    5.8   288     12.6   815.7    0.00     201    92.9
 204   18:10   89.5     7    6.2   286     12.3   815.7    0.00     168    92.7
 204   18:20   88.5     7    5.4   301      9.3   815.6    0.00     133    92.4
 204   18:30   88.4     8    4.1   300      7.2   815.6    0.00      91    92.2
 204   18:40   88.1     8    6.8   294     12.0   815.7    0.00      52    92.0
 204   18:50   87.4     8    5.2   287      9.2   815.7    0.00      16    91.7
 204   19:00   86.5     8    5.7   291     12.1   815.7    0.00      14    91.5
 204   19:10   85.5     8    8.7   314     17.0   815.8    0.00       6    91.3
 204   19:20   84.5     8    8.4   322     12.1   815.9    0.00       4    91.1
 204   19:30   83.6     9    7.9   319     12.4   815.9    0.00       0    90.9
 204   19:40   82.8     9    6.2   316     11.8   816.0    0.00       0    90.6
 204   19:50   82.0     9    5.5   303      9.6   816.1    0.00       0    90.4
 204   20:00   81.2    10    4.5   303      7.1   816.3    0.00       0    90.2
 204   20:10   80.5    10    5.4   301      8.7   816.4    0.00       0    90.0
 204   20:20   80.3    10    6.5   300      9.9   816.5    0.00       0    89.8
 204   20:30   79.9    10    5.4   295      8.4   816.6    0.00       0    89.5
 204   20:40   79.2    10    5.1   292      8.4   816.7    0.00       0    89.3
 204   20:50   78.5    10    4.8   283      6.9   816.8    0.00       0    89.2
 204   21:00   78.1    10    4.8   282      7.2   816.7    0.00       0    89.0
 204   21:10   77.5    10    4.0   285      6.2   816.8    0.00       0    88.7
 204   21:20   76.7    10    3.6   286      5.3   816.8    0.00       0    88.5
 204   21:30   76.3    10    3.8   288      6.1   816.8    0.00       0    88.3
 204   21:40   75.7    11    3.5   305      6.0   816.8    0.00       0    88.1
 204   21:50   75.1    11    3.7   307      4.6   816.9    0.00       0    87.9
 204   22:00   74.8    11    3.2   309      4.2   816.9    0.00       0    87.6
 204   22:10   74.3    11    3.3   308      4.5   817.0    0.00       0    87.4
 204   22:20   74.1    11    3.5   298      4.3   817.1    0.00       0    87.3
 204   22:30   73.2    11    4.2   301      6.1   817.2    0.00       0    87.1
 204   22:40   73.0    11    4.5   294      6.7   817.2    0.00       0    86.9
 204   22:50   72.5    11    4.1   285      6.2   817.1    0.00       0    86.6
 204   23:00   71.8    12    4.0   295      6.2   817.1    0.00       0    86.4
 204   23:10   71.4    12    3.7   298      5.2   817.1    0.00       0    86.2
 204   23:20   71.4    12    4.5   303      6.6   817.1    0.00       0    86.0
 204   23:30   71.4    11    6.2   288     10.2   817.2    0.00       0    85.8
 204   23:40   71.5    11    7.6   293     12.4   817.2    0.00       0    85.6
 204   23:50   71.6    11    8.1   291     12.5   817.2    0.00       0    85.4
 205    0:00   71.5    11    6.7   288     11.2   817.4    0.00       0    85.3
 205    0:10   70.4    11    4.1   282      6.4   817.4    0.00       0    85.1
 205    0:20   69.9    11    6.2   268      8.8   817.3    0.00       0    84.9
 205    0:30   70.2    10    6.3   279     10.0   817.3    0.00       0    84.7
 205    0:40   69.2    11    4.4   284      6.5   817.3    0.00       0    84.5
 205    0:50   68.9    11    5.2   277      9.2   817.2    0.00       0    84.4
 205    1:00   69.3    11    6.5   279      9.7   817.2    0.00       0    84.3
 205    1:10   69.5    10    7.0   273     10.2   817.1    0.00       0    84.1
 205    1:20   69.7    10    7.5   272     10.1   817.1    0.00       0    83.9
 205    1:30   69.6    10    8.6   279     14.1   817.1    0.00       0    83.8
 205    1:40   69.1    10    8.2   279     13.1   817.0    0.00       0    83.6
 205    1:50   68.7    10    7.7   288     12.5   817.0    0.00       0    83.4
 205    2:00   67.6    11    5.9   291      8.0   816.9    0.00       0    83.2
 205    2:10   67.1    11    5.4   291      9.2   816.9    0.00       0    83.1
 205    2:20   67.8    11    6.2   284      9.4   816.8    0.00       0    83.0
 205    2:30   67.4    11    5.3   275      7.7   816.8    0.00       0    82.8
 205    2:40   66.4    11    5.2   283      7.5   816.8    0.00       0    82.6
 205    2:50   65.9    12    4.6   291      7.3   816.7    0.00       0    82.5
 205    3:00   65.7    12    4.4   288      6.9   816.6    0.00       0    82.3
 205    3:10   66.3    11    5.3   282      8.0   816.6    0.00       0    82.1
 205    3:20   66.9    11    6.7   276      9.7   816.7    0.00       0    82.0
 205    3:30   67.2    11    8.0   275     11.0   816.6    0.00       0    81.9
 205    3:40   67.3    11    7.4   274     11.6   816.6    0.00       0    81.7
 205    3:50   66.8    11    6.6   275      9.9   816.6    0.00       0    81.6
 205    4:00   66.1    12    5.6   285      8.9   816.6    0.00       0    81.4
 205    4:10   65.2    12    4.9   290      7.4   816.6    0.00       0    81.3
 205    4:20   65.1    12    5.7   284      8.8   816.7    0.00       0    81.1
 205    4:30   65.5    12    5.6   280      8.2   816.8    0.00       0    81.0
 205    4:40   65.7    12    5.8   273      9.0   816.8    0.00       2    80.9
 205    4:50   65.5    12    5.5   265      7.8   816.8    0.00       4    80.7
 205    5:00   65.7    12    5.5   267      8.5   816.9    0.00       9    80.6
 205    5:10   65.9    12    5.0   272      7.3   816.9    0.00      12    80.5
 205    5:20   65.5    12    4.7   282      7.2   817.0    0.00      17    80.3
 205    5:30   65.2    13    4.5   283      6.6   817.0    0.00      19    80.2
 205    5:40   66.5    12    6.2   278      9.3   817.0    0.00      96    80.1
 205    5:50   68.3    12    5.9   277      8.3   817.1    0.00     148    80.0
 205    6:00   69.2    11    5.9   275      9.0   817.2    0.00     181    79.9
 205    6:10   69.5    11    6.7   277      9.6   817.2    0.00     215    79.8
 205    6:20   70.0    11    6.6   282      9.5   817.2    0.00     251    79.7
 205    6:30   70.0    11    6.4   273     11.3   817.2    0.00     286    79.6
 205    6:40   70.1    12    6.7   270      9.7   817.2    0.00     324    79.6
 205    6:50   70.7    12    6.6   284     11.1   817.3    0.00     361    79.6
 205    7:00   70.9    12    6.6   273     10.3   817.3    0.00     398    79.6
 205    7:10   71.3    12    6.6   275      9.9   817.3    0.00     435    79.7
 205    7:20   72.1    11    6.2   284     11.5   817.2    0.00     472    79.8
 205    7:30   72.2    11    7.7   275     11.1   817.2    0.00     508    79.9
 205    7:40   72.6    10    7.9   286     11.5   817.2    0.00     543    80.0
 205    7:50   72.9    10    7.9   273     10.7   817.3    0.00     579    80.2
 205    8:00   73.5    10    7.4   280     11.5   817.3    0.00     613    80.4
 205    8:10   73.9    10    7.0   281     10.8   817.3    0.00     646    80.6
 205    8:20   74.8    10    6.5   282     10.2   817.3    0.00     678    80.9
 205    8:30   75.5    10    6.1   299     11.6   817.3    0.00     710    81.1
 205    8:40   75.7    10    6.2   278     10.5   817.2    0.00     738    81.3
 205    8:50   76.3    10    5.8   301     10.1   817.2    0.00     770    81.6
 205    9:00   77.1    10    5.9   287      9.1   817.2    0.00     796    81.9
 205    9:10   77.6    10    6.3   297     10.7   817.2    0.00     825    82.3
 205    9:20   78.5     9    6.5   296     11.0   817.1    0.00     850    82.6
 205    9:30   79.7     9    7.1   304     10.8   817.1    0.00     875    83.0
 205    9:40   79.9     9    7.3   281     11.2   817.1    0.00     897    83.3
 205    9:50   80.6     9    6.3   294     10.2   817.0    0.00     920    83.7
 205   10:00   81.3     9    6.8   291     11.5   817.0    0.00     939    84.0
 205   10:10   82.1     8    5.1   310      9.1   816.9    0.00     959    84.4
 205   10:20   83.0     8    5.7   295      9.8   816.8    0.00     973    84.8
 205   10:30   84.1     8    3.9   303     11.0   816.8    0.00     989    85.2
 205   10:40   83.2     8    5.9   331     11.5   816.7    0.00    1002    85.7
 205   10:50   84.3     8    4.7   324     11.4   816.6    0.00    1014    86.1
 205   11:00   84.9     8    3.0   300     11.1   816.6    0.00    1024    86.6
 205   11:10   85.7     7    4.4   261      9.6   816.5    0.00    1032    87.1
 205   11:20   85.6     7    4.1   341     10.1   816.4    0.00    1038    87.7
 205   11:30   86.5     7    4.9   266     10.2   816.3    0.00    1044    88.2
 205   11:40   86.1     7    5.2   274      9.4   816.2    0.00    1047    88.7
 205   11:50   86.3     7    5.8   315     10.2   816.1    0.00    1046    89.3
 205   12:00   86.7     7    4.6   295     13.8   816.1    0.00    1048    89.8
 205   12:10   87.6     7    4.6   281      9.8   816.0    0.00    1048    90.3
 205   12:20   87.9     7    6.8   277     12.5   816.0    0.00    1046    90.8
 205   12:30   87.5     7    5.2   274     12.1   815.9    0.00    1042    91.3
 205   12:40   87.9     7    6.5   284     10.7   815.7    0.00    1037    91.8
 205   12:50   88.1     7    6.6   314     11.2   815.7    0.00    1030    92.3
 205   13:00   87.4     8    4.2   240     12.1   815.6    0.00    1021    92.7
 205   13:10   88.6     7    5.6   264     14.6   815.5    0.00    1015    93.1
 205   13:20   88.7     7    3.6   257     12.3   815.4    0.00    1002    93.5
 205   13:30   89.3     7    6.0   286     11.8   815.3    0.00     989    93.8
 205   13:40   89.2     7    5.9   293     15.8   815.2    0.00     975    94.1
 205   13:50   89.2     7    8.3   311     15.5   815.0    0.00     961    94.4

Return to Tonopah, Nevada graphs page.


Western Regional Climate Center,wrcc@dri.edu